Time;durP1;ratioP1;P1;durP2;ratioP2;P2;SDS_P1;SDS_P2;PMS_P1;PMS_P2;Temp;Humidity;BMP_temperature;BMP_pressure;BME280_temperature;BME280_humidity;BME280_pressure;Samples;Min_cycle;Max_cycle;Signal;HPM_P1;HPM_P2
2021/11/20 00:01:06;;;;;;;16.42;11.95;;;10.50;99.90;;;;;;2115740;28;20038;-70
2021/11/20 00:02:07;;;;;;;17.23;11.32;;;10.50;99.90;;;;;;2115780;28;20044;-71
2021/11/20 00:03:09;;;;;;;17.17;11.43;;;10.50;99.90;;;;;;2115738;28;20035;-75
2021/11/20 00:04:10;;;;;;;16.15;11.15;;;10.50;99.90;;;;;;2095020;28;20036;-73
2021/11/20 00:05:13;;;;;;;16.02;11.15;;;10.50;99.90;;;;;;2098828;28;20534;-74
2021/11/20 00:06:18;;;;;;;15.15;10.55;;;10.50;99.90;;;;;;2106685;28;20028;-74
2021/11/20 00:07:20;;;;;;;15.70;10.93;;;10.50;99.90;;;;;;2099084;28;20031;-73
2021/11/20 00:08:23;;;;;;;14.70;10.70;;;10.50;99.90;;;;;;2101102;28;20025;-73
2021/11/20 00:09:27;;;;;;;18.33;11.63;;;10.60;99.90;;;;;;2107035;28;20059;-73
2021/11/20 00:10:30;;;;;;;14.68;10.57;;;10.60;99.90;;;;;;2104483;28;20499;-72
2021/11/20 00:11:34;;;;;;;14.32;10.48;;;10.60;99.90;;;;;;2098621;28;20078;-74
2021/11/20 00:12:41;;;;;;;15.50;10.18;;;10.60;99.90;;;;;;2092569;28;20504;-74
2021/11/20 00:13:43;;;;;;;13.38;10.02;;;10.70;99.90;;;;;;2097633;28;20024;-74
2021/11/20 00:14:44;;;;;;;14.25;10.63;;;10.70;99.90;;;;;;2100856;28;20028;-74
2021/11/20 00:15:49;;;;;;;16.15;10.32;;;10.60;99.90;;;;;;2106743;28;20016;-74
2021/11/20 00:16:51;;;;;;;16.02;10.82;;;10.60;99.90;;;;;;2099121;28;20013;-73
2021/11/20 00:17:52;;;;;;;14.35;10.05;;;10.70;99.90;;;;;;2107248;28;20020;-74
2021/11/20 00:18:54;;;;;;;14.38;9.75;;;10.60;99.90;;;;;;2101299;28;20505;-73
2021/11/20 00:19:56;;;;;;;14.27;10.23;;;10.70;99.90;;;;;;2107595;28;20024;-73
2021/11/20 00:21:04;;;;;;;18.15;11.43;;;10.70;99.90;;;;;;2107918;28;20031;-74
2021/11/20 00:22:10;;;;;;;18.90;13.30;;;10.60;99.90;;;;;;2107774;28;20036;-74
2021/11/20 00:23:12;;;;;;;17.90;11.55;;;10.70;99.90;;;;;;2101379;28;20398;-72
2021/11/20 00:24:30;;;;;;;30.23;21.65;;;10.60;99.90;;;;;;2104921;28;20162;-72
2021/11/20 00:25:42;;;;;;;26.48;17.02;;;10.60;99.90;;;;;;2104147;28;20043;-72
2021/11/20 00:26:43;;;;;;;21.65;13.70;;;10.60;99.90;;;;;;2100559;28;20384;-73
2021/11/20 00:27:44;;;;;;;17.60;11.95;;;10.60;99.90;;;;;;2105704;28;20078;-73
2021/11/20 00:31:13;;;;;;;;;;;10.70;99.90;;;;;;2102307;28;20024;-82
2021/11/20 00:32:27;;;;;;;18.27;11.38;;;10.60;99.90;;;;;;2105185;28;19911;-74
2021/11/20 00:33:30;;;;;;;15.45;10.80;;;10.60;99.90;;;;;;2098626;28;20024;-75
2021/11/20 00:34:32;;;;;;;14.07;10.02;;;10.60;99.90;;;;;;2103404;28;20020;-74
2021/11/20 00:35:37;;;;;;;16.98;10.77;;;10.60;99.90;;;;;;2107327;28;20042;-75
2021/11/20 00:36:39;;;;;;;18.33;11.52;;;10.60;99.90;;;;;;2103543;28;20048;-74
2021/11/20 00:37:40;;;;;;;14.27;10.55;;;10.70;99.90;;;;;;2091702;28;20040;-74
2021/11/20 00:38:44;;;;;;;15.27;10.60;;;10.60;99.90;;;;;;2098377;28;20116;-73
2021/11/20 00:39:46;;;;;;;15.48;10.77;;;10.60;99.90;;;;;;2097823;28;20477;-75
2021/11/20 00:40:53;;;;;;;19.05;11.60;;;10.60;99.90;;;;;;2104594;28;20669;-73
2021/11/20 00:41:54;;;;;;;17.05;11.40;;;10.60;99.90;;;;;;2108132;28;20039;-74
2021/11/20 00:42:55;;;;;;;16.80;11.13;;;10.60;99.90;;;;;;2108774;28;20055;-73
2021/11/20 00:43:56;;;;;;;16.27;11.05;;;10.60;99.90;;;;;;2109340;28;20098;-73
2021/11/20 00:44:56;;;;;;;16.50;11.52;;;10.60;99.90;;;;;;2102019;28;20024;-72
2021/11/20 00:45:57;;;;;;;17.80;11.57;;;10.60;99.90;;;;;;2101897;28;20036;-72
2021/11/20 00:46:58;;;;;;;16.63;10.93;;;10.60;99.90;;;;;;2105702;28;20036;-74
2021/11/20 00:48:00;;;;;;;16.73;11.40;;;10.70;99.90;;;;;;2096954;28;20050;-73
2021/11/20 00:49:03;;;;;;;16.20;11.02;;;10.60;99.90;;;;;;2102540;28;20028;-72
2021/11/20 00:50:07;;;;;;;15.07;10.77;;;10.60;99.90;;;;;;2102567;28;20029;-72
2021/11/20 00:51:10;;;;;;;17.27;11.00;;;10.70;99.90;;;;;;2102871;28;20063;-71
2021/11/20 00:52:11;;;;;;;19.00;11.43;;;10.70;99.90;;;;;;2101078;28;20425;-71
2021/11/20 00:53:13;;;;;;;16.05;11.40;;;10.70;99.90;;;;;;2102745;28;20054;-70
2021/11/20 00:54:14;;;;;;;16.02;11.25;;;10.70;99.90;;;;;;2097525;28;20106;-71
2021/11/20 00:55:26;;;;;;;19.25;11.95;;;10.70;99.90;;;;;;2089120;28;20056;-72
2021/11/20 00:56:28;;;;;;;18.10;11.30;;;10.70;99.90;;;;;;2096892;28;20028;-70
2021/11/20 00:57:29;;;;;;;20.52;11.75;;;10.70;99.90;;;;;;2097372;28;20063;-69
2021/11/20 00:58:31;;;;;;;19.70;11.95;;;10.70;99.90;;;;;;2089227;28;20036;-71
2021/11/20 00:59:33;;;;;;;18.45;11.88;;;10.70;99.90;;;;;;2089261;28;20111;-74
2021/11/20 01:00:39;;;;;;;17.77;11.25;;;10.70;99.90;;;;;;2089441;28;20036;-73
2021/11/20 01:02:00;;;;;;;18.08;11.65;;;10.70;99.90;;;;;;2089704;28;20029;-74
2021/11/20 01:03:01;;;;;;;18.58;12.18;;;10.70;99.90;;;;;;2098054;28;20063;-76
2021/11/20 01:04:04;;;;;;;16.98;11.90;;;10.70;99.90;;;;;;2098200;28;20122;-77
2021/11/20 01:05:10;;;;;;;21.90;11.85;;;10.70;99.90;;;;;;2097967;28;20036;-76
2021/11/20 01:06:12;;;;;;;17.13;11.80;;;10.70;99.90;;;;;;2097547;28;20455;-75
2021/11/20 01:07:13;;;;;;;18.30;11.93;;;10.70;99.90;;;;;;2104939;28;20066;-74
2021/11/20 01:08:17;;;;;;;19.30;12.13;;;10.70;99.90;;;;;;2098137;28;20024;-75
2021/11/20 01:09:21;;;;;;;17.92;11.90;;;10.70;99.90;;;;;;2097920;28;20040;-74
2021/11/20 01:10:37;;;;;;;17.38;11.98;;;10.70;99.90;;;;;;2106017;28;20495;-77
2021/11/20 01:11:46;;;;;;;17.55;12.20;;;10.70;99.90;;;;;;2099249;28;20102;-75
2021/11/20 01:12:50;;;;;;;22.27;12.82;;;10.70;99.90;;;;;;2099336;28;20039;-74
2021/11/20 01:13:52;;;;;;;19.77;12.05;;;10.70;99.90;;;;;;2098226;28;20027;-74
2021/11/20 01:14:54;;;;;;;17.05;11.93;;;10.70;99.90;;;;;;2097828;28;20074;-72
2021/11/20 01:15:59;;;;;;;16.33;11.48;;;10.70;99.90;;;;;;2097092;28;20507;-73
2021/11/20 01:17:03;;;;;;;19.02;11.43;;;10.70;99.90;;;;;;2097598;28;20036;-72
2021/11/20 01:18:06;;;;;;;18.98;12.55;;;10.70;99.90;;;;;;2098098;28;20029;-73
2021/11/20 01:19:13;;;;;;;18.25;12.23;;;10.70;99.90;;;;;;2098506;28;20106;-73
2021/11/20 01:20:32;;;;;;;18.75;12.25;;;10.70;99.90;;;;;;2106110;28;20048;-74
2021/11/20 01:21:35;;;;;;;18.02;12.23;;;10.70;99.90;;;;;;2105305;28;20031;-73
2021/11/20 01:22:36;;;;;;;20.63;12.55;;;10.70;99.90;;;;;;2097736;28;20029;-74
2021/11/20 01:24:05;;;;;;;18.15;12.32;;;10.70;99.90;;;;;;2099750;28;20032;-72
2021/11/20 01:25:07;;;;;;;19.05;12.52;;;10.70;99.90;;;;;;2101062;28;20062;-73
2021/11/20 01:26:21;;;;;;;19.25;12.48;;;10.70;99.90;;;;;;2098542;28;20029;-73
2021/11/20 01:27:29;;;;;;;19.80;13.10;;;10.60;99.90;;;;;;2098825;28;20523;-73
2021/11/20 01:28:50;;;;;;;19.02;11.88;;;10.70;99.90;;;;;;2099719;28;20107;-73
2021/11/20 01:29:58;;;;;;;20.92;12.88;;;10.70;99.90;;;;;;2090326;28;20594;-72
2021/11/20 01:31:00;;;;;;;18.17;12.00;;;10.70;99.90;;;;;;2089897;28;20110;-72
2021/11/20 01:32:10;;;;;;;16.55;11.93;;;10.70;99.90;;;;;;2098707;28;20025;-72
2021/11/20 01:33:11;;;;;;;19.20;12.20;;;10.70;99.90;;;;;;2097335;28;20040;-72
2021/11/20 01:34:11;;;;;;;19.77;12.13;;;10.70;99.90;;;;;;2097107;28;20078;-73
2021/11/20 01:35:16;;;;;;;17.52;12.07;;;10.70;99.90;;;;;;2097673;28;20446;-72
2021/11/20 01:36:31;;;;;;;19.73;12.15;;;10.70;99.90;;;;;;2098472;28;20139;-73
2021/11/20 01:37:34;;;;;;;18.88;12.57;;;10.70;99.90;;;;;;2097627;28;20025;-72
2021/11/20 01:38:36;;;;;;;19.55;12.90;;;10.70;99.90;;;;;;2097625;28;20028;-73
2021/11/20 01:39:53;;;;;;;18.33;12.63;;;10.70;99.90;;;;;;2105618;28;20016;-72
2021/11/20 01:41:01;;;;;;;18.52;13.57;;;10.70;99.90;;;;;;2098142;28;20799;-72
2021/11/20 01:42:25;;;;;;;19.23;13.02;;;10.70;99.90;;;;;;2105621;28;20048;-72
2021/11/20 01:43:33;;;;;;;20.70;13.20;;;10.70;99.90;;;;;;2099770;28;20024;-72
2021/11/20 01:44:41;;;;;;;20.50;12.85;;;10.70;99.90;;;;;;2105631;28;20450;-72
2021/11/20 01:46:20;;;;;;;21.30;13.35;;;10.70;99.90;;;;;;2105079;28;20526;-71
2021/11/20 01:47:32;;;;;;;20.92;13.05;;;10.70;99.90;;;;;;2085932;28;20044;-72
2021/11/20 01:48:54;;;;;;;22.00;14.40;;;10.70;99.90;;;;;;2091807;28;20035;-72
2021/11/20 01:50:07;;;;;;;24.13;15.82;;;10.70;99.90;;;;;;2091498;28;20130;-73
2021/11/20 01:51:29;;;;;;;24.90;14.77;;;10.70;99.90;;;;;;2083754;28;20141;-72
2021/11/20 01:52:59;;;;;;;23.27;15.30;;;10.70;99.90;;;;;;2094617;28;20105;-71
2021/11/20 01:54:13;;;;;;;27.10;17.00;;;10.70;99.90;;;;;;2101192;28;20426;-72
2021/11/20 01:55:37;;;;;;;29.80;18.05;;;10.70;99.90;;;;;;2099051;28;20028;-71
2021/11/20 01:57:32;;;;;;;28.77;17.80;;;10.70;99.90;;;;;;2093636;28;20354;-72
2021/11/20 01:58:59;;;;;;;24.27;14.75;;;10.70;99.90;;;;;;2105405;28;20039;-71
2021/11/20 02:00:31;;;;;;;22.60;13.73;;;10.70;99.90;;;;;;2106115;28;20408;-72
2021/11/20 02:01:53;;;;;;;21.45;14.05;;;10.70;99.90;;;;;;2105332;28;20039;-71
2021/11/20 02:03:42;;;;;;;22.15;14.82;;;10.70;99.90;;;;;;2100978;28;20028;-72
2021/11/20 02:05:02;;;;;;;24.05;15.27;;;10.70;99.90;;;;;;2105027;28;20123;-71
2021/11/20 02:06:33;;;;;;;23.45;15.13;;;10.60;99.90;;;;;;2091422;28;20029;-71
2021/11/20 02:07:54;;;;;;;25.90;16.88;;;10.60;99.90;;;;;;2098561;28;20024;-71
2021/11/20 02:09:01;;;;;;;24.45;15.70;;;10.60;99.90;;;;;;2104671;28;20035;-71
2021/11/20 02:10:09;;;;;;;23.67;15.43;;;10.60;99.90;;;;;;2105952;28;20022;-71
2021/11/20 02:11:31;;;;;;;23.70;14.55;;;10.60;99.90;;;;;;2105009;28;20023;-72
2021/11/20 02:12:54;;;;;;;24.35;15.25;;;10.60;99.90;;;;;;2099102;28;20104;-73
2021/11/20 02:13:55;;;;;;;24.55;15.07;;;10.60;99.90;;;;;;2100124;28;20098;-71
2021/11/20 02:14:57;;;;;;;25.25;15.45;;;10.70;99.90;;;;;;2105322;28;20450;-72
2021/11/20 02:16:08;;;;;;;24.13;15.38;;;10.70;99.90;;;;;;2104800;28;20047;-72
2021/11/20 02:17:14;;;;;;;24.40;15.32;;;10.70;99.90;;;;;;2105493;28;20028;-72
2021/11/20 02:18:21;;;;;;;23.08;15.20;;;10.70;99.90;;;;;;2098291;28;20714;-72
2021/11/20 02:19:30;;;;;;;24.42;15.18;;;10.70;99.90;;;;;;2106552;28;20028;-72
2021/11/20 02:20:37;;;;;;;23.42;15.52;;;10.70;99.90;;;;;;2108826;28;20112;-72
2021/11/20 02:22:05;;;;;;;21.20;14.50;;;10.70;99.90;;;;;;2107351;28;20024;-72
2021/11/20 02:23:06;;;;;;;24.58;15.30;;;10.70;99.90;;;;;;2100646;28;20038;-72
2021/11/20 02:24:08;;;;;;;22.38;14.55;;;10.70;99.90;;;;;;2097177;28;20035;-71
2021/11/20 02:25:26;;;;;;;27.08;15.68;;;10.70;99.90;;;;;;2099129;28;20113;-71
2021/11/20 02:26:53;;;;;;;24.95;15.70;;;10.70;99.90;;;;;;2102602;28;20040;-71
2021/11/20 02:27:56;;;;;;;23.73;15.50;;;10.70;99.90;;;;;;2105280;28;20114;-72
2021/11/20 02:29:03;;;;;;;22.13;15.55;;;10.70;99.90;;;;;;2105411;28;20028;-71
2021/11/20 02:30:26;;;;;;;25.00;15.85;;;10.70;99.90;;;;;;2099778;28;20073;-71
2021/11/20 02:31:26;;;;;;;24.90;16.27;;;10.70;99.90;;;;;;2105165;28;20094;-71
2021/11/20 02:32:28;;;;;;;25.63;16.40;;;10.70;99.90;;;;;;2105042;28;20032;-71
2021/11/20 02:33:39;;;;;;;24.83;16.10;;;10.70;99.90;;;;;;2097320;28;20035;-71
2021/11/20 02:34:42;;;;;;;27.30;16.30;;;10.70;99.90;;;;;;2097744;28;20455;-71
2021/11/20 02:35:53;;;;;;;30.95;18.88;;;10.70;99.90;;;;;;2096672;28;20031;-72
2021/11/20 02:36:55;;;;;;;31.52;21.45;;;10.60;99.90;;;;;;2098673;28;20021;-71
2021/11/20 02:37:57;;;;;;;35.35;22.80;;;10.70;99.90;;;;;;2105244;28;20051;-71
2021/11/20 02:38:59;;;;;;;28.92;19.17;;;10.70;99.90;;;;;;2097030;28;20032;-70
2021/11/20 02:40:00;;;;;;;29.88;18.98;;;10.70;99.90;;;;;;2096999;28;20059;-73
2021/11/20 02:41:02;;;;;;;27.13;17.15;;;10.70;99.90;;;;;;2096762;28;20160;-73
2021/11/20 02:42:11;;;;;;;26.60;16.55;;;10.70;99.90;;;;;;2097155;28;20052;-72
2021/11/20 02:43:13;;;;;;;24.52;16.55;;;10.70;99.90;;;;;;2097550;28;20029;-72
2021/11/20 02:44:27;;;;;;;26.30;17.10;;;10.70;99.90;;;;;;2098676;28;20055;-71
2021/11/20 02:45:43;;;;;;;25.67;15.70;;;10.60;99.90;;;;;;2098933;28;20028;-71
2021/11/20 02:47:02;;;;;;;26.17;15.95;;;10.70;99.90;;;;;;2105311;28;20028;-71
2021/11/20 02:48:04;;;;;;;25.10;16.65;;;10.70;99.90;;;;;;2105228;28;20036;-71
2021/11/20 02:49:11;;;;;;;27.20;17.05;;;10.70;99.90;;;;;;2105270;28;20024;-71
2021/11/20 02:50:29;;;;;;;25.23;15.57;;;10.70;99.90;;;;;;2098772;28;20123;-71
2021/11/20 02:51:34;;;;;;;24.63;15.95;;;10.70;99.90;;;;;;2096892;28;20074;-71
2021/11/20 02:52:35;;;;;;;25.10;16.42;;;10.70;99.90;;;;;;2097486;28;20418;-72
2021/11/20 02:53:40;;;;;;;24.17;15.93;;;10.70;99.90;;;;;;2105054;28;20032;-72
2021/11/20 02:54:42;;;;;;;23.80;15.85;;;10.70;99.90;;;;;;2105426;28;20024;-71
2021/11/20 02:55:47;;;;;;;22.23;16.00;;;10.70;99.90;;;;;;2105182;28;20448;-71
2021/11/20 02:57:02;;;;;;;26.30;16.38;;;10.70;99.90;;;;;;2097076;28;20427;-71
2021/11/20 02:58:03;;;;;;;24.73;15.65;;;10.60;99.90;;;;;;2105293;28;20032;-71
2021/11/20 02:59:04;;;;;;;24.55;16.00;;;10.70;99.90;;;;;;2105567;28;20721;-71
2021/11/20 03:00:15;;;;;;;26.45;17.00;;;10.70;99.90;;;;;;2104762;28;20020;-70
2021/11/20 03:01:26;;;;;;;25.90;15.73;;;10.70;99.90;;;;;;2097208;28;20408;-71
2021/11/20 03:02:27;;;;;;;25.02;15.77;;;10.70;99.90;;;;;;2097752;28;20039;-70
2021/11/20 03:03:28;;;;;;;23.73;15.73;;;10.70;99.90;;;;;;2096748;28;20035;-72
2021/11/20 03:04:29;;;;;;;25.77;16.40;;;10.70;99.90;;;;;;2105003;28;20028;-71
2021/11/20 03:05:30;;;;;;;26.85;16.88;;;10.70;99.90;;;;;;2096423;28;20024;-72
2021/11/20 03:06:32;;;;;;;25.90;16.48;;;10.70;99.90;;;;;;2096107;28;20032;-72
2021/11/20 03:07:33;;;;;;;22.52;15.68;;;10.70;99.90;;;;;;2105207;28;20537;-72
2021/11/20 03:08:34;;;;;;;27.05;17.02;;;10.70;99.90;;;;;;2104956;28;20028;-70
2021/11/20 03:09:43;;;;;;;26.42;16.60;;;10.70;99.90;;;;;;2104863;28;20119;-72
2021/11/20 03:10:55;;;;;;;22.88;15.65;;;10.60;99.90;;;;;;2096318;28;20144;-72
2021/11/20 03:11:57;;;;;;;25.35;16.88;;;10.70;99.90;;;;;;2089254;28;20037;-71
2021/11/20 03:12:58;;;;;;;26.38;16.92;;;10.70;99.90;;;;;;2105039;28;20028;-72
2021/11/20 03:14:04;;;;;;;27.75;17.40;;;10.60;99.90;;;;;;2104949;28;20028;-72
2021/11/20 03:15:20;;;;;;;25.60;17.02;;;10.60;99.90;;;;;;2105012;28;20040;-71
2021/11/20 03:16:24;;;;;;;30.08;18.00;;;10.60;99.90;;;;;;2096604;28;20031;-72
2021/11/20 03:17:25;;;;;;;29.85;17.75;;;10.60;99.90;;;;;;2096764;28;20426;-72
2021/11/20 03:18:26;;;;;;;26.05;17.45;;;10.60;99.90;;;;;;2105069;28;20090;-71
2021/11/20 03:19:31;;;;;;;24.20;17.13;;;10.60;99.90;;;;;;2105499;28;20122;-71
2021/11/20 03:20:32;;;;;;;26.38;17.08;;;10.60;99.90;;;;;;2096376;28;20024;-71
2021/11/20 03:21:35;;;;;;;26.90;16.95;;;10.60;99.90;;;;;;2096180;28;20032;-72
2021/11/20 03:22:45;;;;;;;29.52;17.65;;;10.60;99.90;;;;;;2088579;28;20143;-72
2021/11/20 03:23:50;;;;;;;26.58;17.27;;;10.60;99.90;;;;;;2097782;28;20484;-71
2021/11/20 03:24:52;;;;;;;23.80;16.33;;;10.60;99.90;;;;;;2096933;28;20073;-72
2021/11/20 03:25:53;;;;;;;24.23;17.48;;;10.60;99.90;;;;;;2104365;28;20419;-72
2021/11/20 03:26:56;;;;;;;26.40;17.33;;;10.60;99.90;;;;;;2104754;28;20046;-71
2021/11/20 03:27:58;;;;;;;27.88;16.95;;;10.60;99.90;;;;;;2105033;28;20048;-71
2021/11/20 03:29:00;;;;;;;28.58;18.23;;;10.60;99.90;;;;;;2104837;28;20123;-71
2021/11/20 03:30:06;;;;;;;27.85;17.42;;;10.60;99.90;;;;;;2104739;28;20028;-71
2021/11/20 03:31:08;;;;;;;26.30;17.70;;;10.60;99.90;;;;;;2097009;28;20116;-71
2021/11/20 03:32:10;;;;;;;28.42;17.17;;;10.60;99.90;;;;;;2104710;28;20024;-71
2021/11/20 03:33:11;;;;;;;24.85;16.85;;;10.60;99.90;;;;;;2096429;28;20033;-72
2021/11/20 03:34:13;;;;;;;26.58;17.42;;;10.60;99.90;;;;;;2096621;28;20028;-71
2021/11/20 03:35:14;;;;;;;29.23;17.75;;;10.60;99.90;;;;;;2096511;28;20032;-72
2021/11/20 03:36:16;;;;;;;26.80;17.48;;;10.50;99.90;;;;;;2087893;28;20112;-71
2021/11/20 03:37:22;;;;;;;27.67;17.00;;;10.50;99.90;;;;;;2096552;28;20436;-71
2021/11/20 03:38:23;;;;;;;26.00;16.88;;;10.50;99.90;;;;;;2104833;28;20480;-71
2021/11/20 03:39:24;;;;;;;26.45;17.55;;;10.50;99.90;;;;;;2096420;28;20030;-71
2021/11/20 03:40:28;;;;;;;26.17;17.08;;;10.60;99.90;;;;;;2096793;28;20123;-72
2021/11/20 03:41:29;;;;;;;25.23;17.85;;;10.60;99.90;;;;;;2104496;28;20143;-71
2021/11/20 03:42:30;;;;;;;27.67;17.30;;;10.60;99.90;;;;;;2096346;28;20472;-71
2021/11/20 03:43:31;;;;;;;26.52;17.17;;;10.60;99.90;;;;;;2096132;28;20078;-71
2021/11/20 03:44:32;;;;;;;25.50;17.75;;;10.60;99.90;;;;;;2104655;28;20028;-72
2021/11/20 03:45:35;;;;;;;26.88;17.90;;;10.60;99.90;;;;;;2105335;28;20032;-71
2021/11/20 03:46:38;;;;;;;26.83;16.73;;;10.60;99.90;;;;;;2104380;28;20024;-72
2021/11/20 03:47:39;;;;;;;28.23;17.65;;;10.60;99.90;;;;;;2104858;28;20103;-71
2021/11/20 03:48:41;;;;;;;28.55;17.58;;;10.60;99.90;;;;;;2096827;28;20103;-72
2021/11/20 03:49:43;;;;;;;28.20;18.00;;;10.60;99.90;;;;;;2096992;28;20542;-71
2021/11/20 03:50:44;;;;;;;28.15;17.42;;;10.60;99.90;;;;;;2097009;28;20074;-71
2021/11/20 03:51:45;;;;;;;24.67;16.42;;;10.60;99.90;;;;;;2096084;28;20040;-71
2021/11/20 03:52:47;;;;;;;26.35;18.13;;;10.60;99.90;;;;;;2096127;28;20028;-71
2021/11/20 03:53:51;;;;;;;28.67;17.88;;;10.60;99.90;;;;;;2096273;28;20063;-72
2021/11/20 03:54:52;;;;;;;26.42;17.63;;;10.60;99.90;;;;;;2096204;28;20075;-71
2021/11/20 03:55:54;;;;;;;25.67;17.50;;;10.60;99.90;;;;;;2087395;28;20032;-72
2021/11/20 03:56:55;;;;;;;24.25;16.92;;;10.60;99.90;;;;;;2087973;28;20032;-71
2021/11/20 03:57:56;;;;;;;26.67;17.92;;;10.60;99.90;;;;;;2087926;28;20489;-72
2021/11/20 03:58:57;;;;;;;25.48;16.98;;;10.60;99.90;;;;;;2104608;28;20117;-72
2021/11/20 03:59:58;;;;;;;26.02;16.95;;;10.60;99.90;;;;;;2104341;28;20027;-72
2021/11/20 04:01:06;;;;;;;26.77;16.98;;;10.60;99.90;;;;;;2096203;28;20032;-72
2021/11/20 04:02:07;;;;;;;26.60;18.13;;;10.60;99.90;;;;;;2089682;28;20033;-72
2021/11/20 04:03:09;;;;;;;27.88;17.50;;;10.60;99.90;;;;;;2096259;28;20067;-72
2021/11/20 04:04:13;;;;;;;25.95;17.48;;;10.60;99.90;;;;;;2096701;28;20047;-71
2021/11/20 04:05:18;;;;;;;25.90;17.35;;;10.60;99.90;;;;;;2096488;28;20040;-72
2021/11/20 04:06:20;;;;;;;26.23;17.65;;;10.60;99.90;;;;;;2104134;28;20601;-72
2021/11/20 04:07:31;;;;;;;23.98;16.58;;;10.60;99.90;;;;;;2104697;28;20028;-72
2021/11/20 04:08:32;;;;;;;28.02;17.30;;;10.60;99.90;;;;;;2096148;28;20029;-72
2021/11/20 04:09:44;;;;;;;26.08;16.77;;;10.60;99.90;;;;;;2097737;28;20024;-72
2021/11/20 04:10:50;;;;;;;25.60;17.52;;;10.60;99.90;;;;;;2096520;28;20766;-72
2021/11/20 04:11:52;;;;;;;26.90;17.55;;;10.60;99.90;;;;;;2096156;28;20135;-72
2021/11/20 04:12:53;;;;;;;26.33;18.13;;;10.60;99.90;;;;;;2096244;28;20029;-72
2021/11/20 04:13:54;;;;;;;28.17;17.88;;;10.60;99.90;;;;;;2096300;28;20032;-72
2021/11/20 04:14:56;;;;;;;25.80;16.85;;;10.60;99.90;;;;;;2096148;28;20025;-72
2021/11/20 04:15:57;;;;;;;27.98;17.38;;;10.60;99.90;;;;;;2087743;28;20021;-71
2021/11/20 04:16:58;;;;;;;29.63;18.60;;;10.60;99.90;;;;;;2096369;28;20095;-72
2021/11/20 04:17:59;;;;;;;26.95;17.55;;;10.60;99.90;;;;;;2104565;28;20032;-72
2021/11/20 04:19:00;;;;;;;26.52;17.00;;;10.60;99.90;;;;;;2095934;28;20543;-72
2021/11/20 04:20:08;;;;;;;26.20;18.25;;;10.60;99.90;;;;;;2096070;28;20055;-71
2021/11/20 04:21:09;;;;;;;30.20;18.65;;;10.60;99.90;;;;;;2104576;28;20046;-72
2021/11/20 04:22:10;;;;;;;26.08;18.17;;;10.60;99.90;;;;;;2104208;28;20028;-72
2021/11/20 04:23:12;;;;;;;26.08;18.30;;;10.60;99.90;;;;;;2096204;28;20098;-71
2021/11/20 04:24:15;;;;;;;27.85;19.17;;;10.60;99.90;;;;;;2096200;28;20027;-71
2021/11/20 04:25:34;;;;;;;30.38;19.35;;;10.60;99.90;;;;;;2104839;28;20036;-72
2021/11/20 04:26:35;;;;;;;30.15;18.90;;;10.60;99.90;;;;;;2104011;28;20058;-72
2021/11/20 04:27:36;;;;;;;29.70;19.38;;;10.60;99.90;;;;;;2104618;28;20024;-72
2021/11/20 04:28:56;;;;;;;31.73;19.83;;;10.50;99.90;;;;;;2105336;28;20404;-71
2021/11/20 04:30:08;;;;;;;32.28;19.90;;;10.50;99.90;;;;;;2096035;28;20032;-71
2021/11/20 04:31:09;;;;;;;28.15;18.98;;;10.50;99.90;;;;;;2089621;28;20036;-72
2021/11/20 04:32:10;;;;;;;28.50;19.13;;;10.50;99.90;;;;;;2104951;28;20043;-71
2021/11/20 04:33:11;;;;;;;31.35;19.63;;;10.60;99.90;;;;;;2106016;28;20032;-71
2021/11/20 04:34:12;;;;;;;31.33;19.95;;;10.60;99.90;;;;;;2106067;28;20059;-71
2021/11/20 04:35:15;;;;;;;30.08;19.90;;;10.60;99.90;;;;;;2105949;28;20122;-71
2021/11/20 04:36:17;;;;;;;28.45;19.17;;;10.50;99.90;;;;;;2097252;28;20056;-71
2021/11/20 04:37:18;;;;;;;31.40;20.00;;;10.60;99.90;;;;;;2097486;28;20084;-71
2021/11/20 04:38:19;;;;;;;28.40;19.50;;;10.50;99.90;;;;;;2105985;28;20095;-71
2021/11/20 04:39:20;;;;;;;29.83;19.70;;;10.50;99.90;;;;;;2105696;28;20020;-71
2021/11/20 04:40:23;;;;;;;32.03;19.50;;;10.50;99.90;;;;;;2097402;28;20031;-71
2021/11/20 04:41:24;;;;;;;30.67;19.92;;;10.50;99.90;;;;;;2097226;28;20086;-71
2021/11/20 04:42:25;;;;;;;31.63;19.92;;;10.50;99.90;;;;;;2105906;28;20388;-71
2021/11/20 04:43:26;;;;;;;31.05;19.67;;;10.60;99.90;;;;;;2097409;28;20102;-71
2021/11/20 04:44:27;;;;;;;31.50;19.83;;;10.50;99.90;;;;;;2097588;28;20711;-71
2021/11/20 04:45:33;;;;;;;31.98;20.30;;;10.50;99.90;;;;;;2097602;28;20040;-71
2021/11/20 04:46:35;;;;;;;31.52;20.42;;;10.50;99.90;;;;;;2097800;28;20108;-71
2021/11/20 04:47:37;;;;;;;31.75;20.65;;;10.50;99.90;;;;;;2098097;28;20025;-71
2021/11/20 04:48:38;;;;;;;30.13;19.92;;;10.50;99.90;;;;;;2089270;28;20043;-71
2021/11/20 04:49:39;;;;;;;28.75;19.50;;;10.50;99.90;;;;;;2097347;28;20566;-71
2021/11/20 04:50:46;;;;;;;36.85;20.73;;;10.60;99.90;;;;;;2105651;28;20472;-71
2021/11/20 04:51:47;;;;;;;32.08;20.23;;;10.60;99.90;;;;;;2105400;28;20032;-71
2021/11/20 04:52:49;;;;;;;30.98;20.75;;;10.60;99.90;;;;;;2106183;28;20036;-71
2021/11/20 04:53:51;;;;;;;30.55;19.80;;;10.50;99.90;;;;;;2105676;28;20022;-71
2021/11/20 04:54:51;;;;;;;33.28;20.60;;;10.50;99.90;;;;;;2105870;28;20083;-71
2021/11/20 04:55:57;;;;;;;31.40;19.60;;;10.50;99.90;;;;;;2097002;28;20024;-71
2021/11/20 04:56:58;;;;;;;32.28;20.00;;;10.50;99.90;;;;;;2098097;28;20048;-71
2021/11/20 04:58:00;;;;;;;31.25;19.70;;;10.60;99.90;;;;;;2097340;28;20036;-71
2021/11/20 04:59:01;;;;;;;34.75;20.20;;;10.50;99.90;;;;;;2097438;28;20431;-71
2021/11/20 05:00:13;;;;;;;31.63;20.23;;;10.50;99.90;;;;;;2105532;28;20557;-71
2021/11/20 05:01:23;;;;;;;29.40;19.73;;;10.50;99.90;;;;;;2099119;28;20033;-71
2021/11/20 05:02:27;;;;;;;31.95;19.98;;;10.50;99.90;;;;;;2097791;28;20478;-72
2021/11/20 05:03:31;;;;;;;31.40;19.85;;;10.50;99.90;;;;;;2105719;28;20127;-72
2021/11/20 05:04:34;;;;;;;29.02;19.90;;;10.50;99.90;;;;;;2098510;28;20124;-72
2021/11/20 05:05:38;;;;;;;32.67;20.58;;;10.50;99.90;;;;;;2106503;28;20054;-72
2021/11/20 05:06:41;;;;;;;29.10;19.25;;;10.50;99.90;;;;;;2105652;28;20024;-72
2021/11/20 05:07:42;;;;;;;32.72;20.50;;;10.50;99.90;;;;;;2105700;28;20024;-72
2021/11/20 05:08:42;;;;;;;29.98;19.85;;;10.50;99.90;;;;;;2106321;28;20061;-72
2021/11/20 05:09:43;;;;;;;30.90;19.45;;;10.50;99.90;;;;;;2106283;28;20085;-72
2021/11/20 05:10:45;;;;;;;31.55;19.45;;;10.50;99.90;;;;;;2105740;28;20056;-72
2021/11/20 05:11:45;;;;;;;33.47;20.38;;;10.50;99.90;;;;;;2096871;28;20107;-72
2021/11/20 05:12:47;;;;;;;32.70;19.92;;;10.50;99.90;;;;;;2097461;28;20059;-72
2021/11/20 05:13:59;;;;;;;31.55;20.25;;;10.50;99.90;;;;;;2098736;28;20063;-72
2021/11/20 05:15:02;;;;;;;35.40;21.00;;;10.50;99.90;;;;;;2097628;28;20024;-72
2021/11/20 05:16:04;;;;;;;30.38;20.80;;;10.50;99.90;;;;;;2097040;28;20119;-72
2021/11/20 05:17:06;;;;;;;30.17;20.30;;;10.50;99.90;;;;;;2097335;28;20021;-71
2021/11/20 05:18:07;;;;;;;29.60;20.27;;;10.50;99.90;;;;;;2097290;28;20028;-72
2021/11/20 05:19:23;;;;;;;28.10;18.90;;;10.50;99.90;;;;;;2105792;28;20112;-72
2021/11/20 05:20:24;;;;;;;31.55;20.45;;;10.50;99.90;;;;;;2106057;28;20438;-72
2021/11/20 05:21:25;;;;;;;34.20;20.95;;;10.50;99.90;;;;;;2105169;28;20122;-72
2021/11/20 05:22:26;;;;;;;32.60;20.40;;;10.50;99.90;;;;;;2097096;28;20029;-72
2021/11/20 05:23:29;;;;;;;34.22;20.90;;;10.50;99.90;;;;;;2097337;28;20089;-72
2021/11/20 05:24:30;;;;;;;33.75;20.63;;;10.50;99.90;;;;;;2097578;28;20087;-72
2021/11/20 05:25:31;;;;;;;31.70;20.30;;;10.50;99.90;;;;;;2097256;28;20574;-72
2021/11/20 05:26:32;;;;;;;31.17;20.20;;;10.50;99.90;;;;;;2096910;28;20029;-72
2021/11/20 05:27:36;;;;;;;34.42;21.35;;;10.40;99.90;;;;;;2097602;28;20028;-71
2021/11/20 05:28:36;;;;;;;34.40;21.50;;;10.50;99.90;;;;;;2106646;28;20507;-72
2021/11/20 05:30:41;;;;;;;32.15;20.98;;;10.40;99.90;;;;;;2105840;28;20040;-72
2021/11/20 05:31:42;;;;;;;33.53;20.90;;;10.40;99.90;;;;;;2089429;28;20036;-72
2021/11/20 05:32:48;;;;;;;32.60;21.05;;;10.40;99.90;;;;;;2097657;28;20033;-72
2021/11/20 05:33:51;;;;;;;35.38;21.30;;;10.40;99.90;;;;;;2106208;28;20032;-72
2021/11/20 05:34:52;;;;;;;33.63;21.30;;;10.40;99.90;;;;;;2106522;28;20028;-72
2021/11/20 05:35:53;;;;;;;34.90;21.90;;;10.40;99.90;;;;;;2105462;28;20077;-71
2021/11/20 05:36:54;;;;;;;29.77;20.27;;;10.40;99.90;;;;;;2096963;28;20020;-72
2021/11/20 05:37:59;;;;;;;34.90;21.83;;;10.40;99.90;;;;;;2097421;28;20566;-72